< < Back
Terminal Aerodrome Forecast


Current Version              Previous Versions:   1  2  3  4  5  6  7  8  9  

Terminal Aerodrome Forecast

082
FTUS44 KOHX 282320
TAFCSV
TAF
KCSV 282320Z 2900/2924 02007KT P6SM FEW050
     FM290100 35003KT P6SM SKC
     FM291000 00000KT 5SM BR SKC
     FM291300 01006KT P6SM SCT250=

Latest METAR

359
SAUS70 KWBC 292100 RRO
MTRCSV
METAR KCSV 292053Z AUTO 35006KT 10SM CLR 26/13 A3006 RMK AO2 SLP159
6//// T02610128 56007


USA.gov is the U.S. government's official web portal to all federal, state and local government web resources and services.